createdAt,value
2022-11-16T00:04:00.029Z,99903.67
2022-11-16T00:09:22.311Z,99904.98
2022-11-16T00:14:27.505Z,99905.36
2022-11-16T00:19:30.597Z,99907.82
2022-11-16T00:24:34.143Z,99905.66
2022-11-16T00:29:37.011Z,99899.80
2022-11-16T00:34:40.659Z,99902.52
2022-11-16T00:39:43.604Z,99905.27
2022-11-16T00:44:46.464Z,99899.32
2022-11-16T00:49:49.313Z,99900.79
2022-11-16T00:54:52.183Z,99911.79
2022-11-16T00:59:55.045Z,99916.31
2022-11-16T01:04:57.961Z,99911.14
2022-11-16T01:10:00.895Z,99913.26
2022-11-16T01:15:06.291Z,99907.80
2022-11-16T01:20:13.102Z,99903.43
2022-11-16T01:25:16.786Z,99899.27
2022-11-16T01:30:19.887Z,99894.57
2022-11-16T01:35:22.908Z,99899.65
2022-11-16T01:40:28.264Z,99899.46
2022-11-16T01:45:38.633Z,99896.63
2022-11-16T01:50:42.661Z,99887.09
2022-11-16T01:55:48.394Z,99883.71
2022-11-16T02:00:51.401Z,99877.84
2022-11-16T02:06:14.428Z,99871.95
2022-11-16T02:18:46.939Z,99878.00
2022-11-16T02:24:08.540Z,99873.84
2022-11-16T02:29:28.961Z,99874.96
2022-11-16T02:34:37.842Z,99875.50
2022-11-16T02:39:43.461Z,99890.52
2022-11-16T02:44:50.030Z,99890.14
2022-11-16T02:49:59.140Z,99890.23
2022-11-16T02:55:01.922Z,99893.13
2022-11-16T03:00:07.745Z,99892.68
2022-11-16T03:05:36.578Z,99888.42
2022-11-16T03:11:00.603Z,99889.04
2022-11-16T03:16:13.323Z,99882.70
2022-11-16T03:21:37.730Z,99883.09
2022-11-16T03:26:57.571Z,99880.73
2022-11-16T03:32:11.547Z,99881.48
2022-11-16T03:37:15.510Z,99884.98
2022-11-16T03:42:20.863Z,99886.79
2022-11-16T03:47:24.227Z,99885.14
2022-11-16T03:52:27.228Z,99889.23
2022-11-16T03:57:30.125Z,99884.23
2022-11-16T04:02:32.986Z,99885.39
2022-11-16T04:07:54.468Z,99884.62
2022-11-16T04:13:16.683Z,99891.14
2022-11-16T04:18:38.419Z,99894.00
2022-11-16T04:24:00.566Z,99892.02
2022-11-16T04:29:03.474Z,99889.72
2022-11-16T04:34:25.201Z,99887.91
2022-11-16T04:39:28.028Z,99888.80
2022-11-16T04:44:53.901Z,99891.39
2022-11-16T04:49:56.743Z,99889.79
2022-11-16T04:54:59.590Z,99887.20
2022-11-16T05:00:04.221Z,99887.45
2022-11-16T05:05:07.511Z,99890.25
2022-11-16T05:10:10.364Z,99887.67
2022-11-16T05:15:13.235Z,99885.81
2022-11-16T05:20:34.623Z,99891.84
2022-11-16T05:25:37.780Z,99895.30
2022-11-16T05:30:40.629Z,99892.96
2022-11-16T05:35:43.458Z,99890.45
2022-11-16T05:40:46.425Z,99887.65
2022-11-16T05:45:49.245Z,99880.03
2022-11-16T05:50:58.876Z,99883.59
2022-11-16T05:56:01.843Z,99879.94
2022-11-16T06:01:05.254Z,99879.55
2022-11-16T06:06:08.148Z,99882.20
2022-11-16T06:11:14.793Z,99883.85
2022-11-16T06:16:25.148Z,99886.63
2022-11-16T06:21:29.952Z,99892.91
2022-11-16T06:26:33.402Z,99898.88
2022-11-16T06:31:36.131Z,99904.59
2022-11-16T06:36:39.054Z,99912.23
2022-11-16T06:41:42.008Z,99915.33
2022-11-16T06:46:44.909Z,99915.30
2022-11-16T06:51:47.761Z,99912.52
2022-11-16T06:56:50.638Z,99913.98
2022-11-16T07:01:53.555Z,99917.98
2022-11-16T07:06:56.489Z,99913.60
2022-11-16T07:12:00.503Z,99913.60
2022-11-16T07:17:09.261Z,99912.30
2022-11-16T07:22:12.460Z,99909.90
2022-11-16T07:27:35.113Z,99914.10
2022-11-16T07:32:40.694Z,99915.58
2022-11-16T07:37:46.453Z,99906.58
2022-11-16T07:42:50.248Z,99913.15
2022-11-16T07:47:53.673Z,99914.83
2022-11-16T07:52:56.684Z,99915.11
2022-11-16T07:57:59.668Z,99916.34
2022-11-16T08:03:02.505Z,99911.01
2022-11-16T08:08:05.567Z,99917.19
2022-11-16T08:13:08.435Z,99913.00
2022-11-16T08:18:11.277Z,99915.35
2022-11-16T08:23:14.135Z,99917.85
2022-11-16T08:28:17.302Z,99916.46
2022-11-16T08:33:21.598Z,99917.69
2022-11-16T08:38:24.467Z,99926.30
2022-11-16T08:43:29.444Z,99931.16
2022-11-16T08:48:32.660Z,99936.67
2022-11-16T08:53:36.126Z,99939.06
2022-11-16T08:58:40.065Z,99938.25
2022-11-16T09:03:43.359Z,99943.42
2022-11-16T09:08:47.169Z,99943.23
2022-11-16T09:13:52.262Z,99938.61
2022-11-16T09:18:55.966Z,99945.53
2022-11-16T09:23:58.962Z,99944.61
2022-11-16T09:29:04.501Z,99940.88
2022-11-16T09:34:08.048Z,99946.95
2022-11-16T09:39:30.547Z,99943.66
2022-11-16T09:44:56.362Z,99939.61
2022-11-16T09:50:04.117Z,99938.88
2022-11-16T09:55:22.612Z,99934.97
2022-11-16T10:00:25.893Z,99937.34
2022-11-16T10:05:32.853Z,99935.69
2022-11-16T10:10:40.277Z,99941.73
2022-11-16T10:15:53.804Z,99935.88
2022-11-16T10:21:10.812Z,99934.02
2022-11-16T10:26:42.294Z,99926.47
2022-11-16T10:32:12.046Z,99931.77
2022-11-16T10:37:14.988Z,99930.94
2022-11-16T10:42:39.386Z,99930.51
2022-11-16T10:47:50.313Z,99926.71
2022-11-16T10:52:53.547Z,99926.92
2022-11-16T10:57:59.899Z,99924.48
2022-11-16T11:03:05.574Z,99926.23
2022-11-16T11:08:12.100Z,99926.02
2022-11-16T11:13:14.862Z,99927.89
2022-11-16T11:18:20.817Z,99930.58
2022-11-16T11:23:26.401Z,99934.05
2022-11-16T11:28:35.243Z,99934.95
2022-11-16T11:33:51.891Z,99937.73
2022-11-16T11:39:13.089Z,99928.66
2022-11-16T11:44:18.932Z,99925.79
2022-11-16T11:49:33.907Z,99924.71
2022-11-16T11:54:46.104Z,99924.76
2022-11-16T11:59:52.398Z,99917.20
2022-11-16T12:05:23.191Z,99912.70
2022-11-16T12:10:25.979Z,99920.15
2022-11-16T12:15:40.867Z,99919.70
2022-11-16T12:20:55.954Z,99921.70
2022-11-16T12:26:34.887Z,99920.33
2022-11-16T12:32:06.565Z,99921.48
2022-11-16T12:37:42.241Z,99924.48
2022-11-16T12:43:03.047Z,99928.11
2022-11-16T12:48:11.909Z,99921.49
2022-11-16T12:53:36.520Z,99919.20
2022-11-16T12:59:26.007Z,99921.05
2022-11-16T13:04:45.809Z,99924.77
2022-11-16T13:10:03.518Z,99920.44
2022-11-16T13:15:19.223Z,99923.90
2022-11-16T13:20:34.035Z,99923.41
2022-11-16T13:25:41.845Z,99917.44
2022-11-16T13:31:14.230Z,99919.16
2022-11-16T13:36:32.319Z,99922.84
2022-11-16T13:41:36.544Z,99918.69
2022-11-16T13:46:55.703Z,99915.74
2022-11-16T13:52:23.353Z,99918.20
2022-11-16T13:57:32.723Z,99918.42
2022-11-16T14:02:37.106Z,99913.42
2022-11-16T14:07:49.761Z,99919.16
2022-11-16T14:12:54.764Z,99919.75
2022-11-16T14:18:09.875Z,99924.14
2022-11-16T14:23:12.766Z,99917.75
2022-11-16T14:28:53.395Z,99917.25
2022-11-16T14:33:59.394Z,99915.38
2022-11-16T14:39:28.337Z,99915.51
2022-11-16T14:44:37.968Z,99914.52
2022-11-16T14:49:43.276Z,99915.40
2022-11-16T14:54:53.932Z,99917.66
2022-11-16T15:00:22.842Z,99913.17
2022-11-16T15:05:33.112Z,99915.39
2022-11-16T15:10:39.153Z,99914.00
2022-11-16T15:15:46.882Z,99919.00
2022-11-16T15:20:52.203Z,99919.49
2022-11-16T15:25:56.437Z,99918.29
2022-11-16T15:31:04.542Z,99915.91
2022-11-16T15:36:24.348Z,99919.50
2022-11-16T15:41:29.432Z,99919.47
2022-11-16T15:46:35.554Z,99912.71
2022-11-16T15:51:43.216Z,99907.68
2022-11-16T15:56:46.166Z,99904.70
2022-11-16T16:01:49.234Z,99900.04
2022-11-16T16:06:55.677Z,99902.98
2022-11-16T16:12:17.674Z,99898.50
2022-11-16T16:17:23.678Z,99891.09
2022-11-16T16:22:30.700Z,99891.26
2022-11-16T16:27:39.927Z,99893.70
2022-11-16T16:32:42.801Z,99889.90
2022-11-16T16:37:49.893Z,99896.10
2022-11-16T16:42:53.427Z,99894.20
2022-11-16T16:47:56.398Z,99891.61
2022-11-16T16:52:59.203Z,99893.15
2022-11-16T16:58:03.063Z,99891.80
2022-11-16T17:03:05.978Z,99896.48
2022-11-16T17:08:08.791Z,99903.76
2022-11-16T17:13:11.719Z,99899.98
2022-11-16T17:18:14.631Z,99901.89
2022-11-16T17:23:18.838Z,99911.25
2022-11-16T17:28:21.679Z,99906.61
2022-11-16T17:33:24.516Z,99912.86
2022-11-16T17:38:27.735Z,99909.76
2022-11-16T17:43:31.090Z,99906.34
2022-11-16T17:48:35.250Z,99909.13
2022-11-16T17:53:39.878Z,99902.61
2022-11-16T17:58:43.183Z,99908.17
2022-11-16T18:03:46.063Z,99911.66
2022-11-16T18:08:49.412Z,99918.61
2022-11-16T18:13:54.549Z,99915.15
2022-11-16T18:19:03.034Z,99916.19
2022-11-16T18:24:06.251Z,99919.45
2022-11-16T18:29:12.752Z,99918.25
2022-11-16T18:34:15.822Z,99911.31
2022-11-16T18:39:18.654Z,99913.40
2022-11-16T18:44:21.550Z,99910.30
2022-11-16T18:49:24.465Z,99915.13
2022-11-16T18:54:27.362Z,99914.80
2022-11-16T18:59:30.175Z,99919.98
2022-11-16T19:04:33.067Z,99923.95
2022-11-16T19:09:35.879Z,99927.43
2022-11-16T19:14:39.572Z,99929.67
2022-11-16T19:19:42.460Z,99926.91
2022-11-16T19:24:45.267Z,99932.95
2022-11-16T19:29:48.115Z,99939.69
2022-11-16T19:34:51.123Z,99940.92
2022-11-16T19:39:53.995Z,99935.72
2022-11-16T19:44:56.846Z,99937.10
2022-11-16T19:49:59.720Z,99936.27
2022-11-16T19:55:02.600Z,99942.11
2022-11-16T20:00:06.427Z,99940.73
2022-11-16T20:05:09.517Z,99930.04
2022-11-16T20:10:12.356Z,99927.45
2022-11-16T20:15:15.438Z,99929.16
2022-11-16T20:20:18.834Z,99926.57
2022-11-16T20:25:21.711Z,99935.91
2022-11-16T20:30:24.767Z,99933.32
2022-11-16T20:35:27.751Z,99931.73
2022-11-16T20:40:30.575Z,99935.02
2022-11-16T20:45:34.582Z,99935.55
2022-11-16T20:50:37.389Z,99937.44
2022-11-16T20:55:40.231Z,99943.32
2022-11-16T21:00:43.212Z,99947.67
2022-11-16T21:05:52.549Z,99944.36
2022-11-16T21:10:55.778Z,99936.05
2022-11-16T21:16:01.327Z,99942.64
2022-11-16T21:21:09.025Z,99945.59
2022-11-16T21:26:14.413Z,99945.23
2022-11-16T21:31:20.183Z,99940.58
2022-11-16T21:36:25.722Z,99941.10
2022-11-16T21:41:28.839Z,99940.24
2022-11-16T21:46:31.704Z,99931.27
2022-11-16T21:51:34.577Z,99936.98
2022-11-16T21:56:37.388Z,99937.85
2022-11-16T22:02:12.168Z,99942.20
2022-11-16T22:07:34.125Z,99941.83
2022-11-16T22:18:16.006Z,99948.61
2022-11-16T22:23:23.425Z,99951.89
2022-11-16T22:28:27.068Z,99949.99
2022-11-16T22:33:30.592Z,99950.36
2022-11-16T22:38:34.069Z,99952.45
2022-11-16T22:43:37.954Z,99950.22
2022-11-16T22:48:41.581Z,99945.92
2022-11-16T22:53:44.697Z,99947.12
2022-11-16T22:58:47.539Z,99942.13
2022-11-16T23:03:50.892Z,99939.04
2022-11-16T23:08:53.911Z,99935.92
2022-11-16T23:14:16.316Z,99934.38
2022-11-16T23:19:39.654Z,99935.80
2022-11-16T23:25:02.556Z,99933.92
2022-11-16T23:30:12.231Z,99931.66
2022-11-16T23:35:16.670Z,99931.84
2022-11-16T23:40:20.446Z,99927.02
2022-11-16T23:45:23.346Z,99921.67
2022-11-16T23:50:26.288Z,99925.46
2022-11-16T23:55:29.449Z,99925.81
